Time;durP1;ratioP1;P1;durP2;ratioP2;P2;SDS_P1;SDS_P2;PMS_P1;PMS_P2;Temp;Humidity;BMP_temperature;BMP_pressure;BME280_temperature;BME280_humidity;BME280_pressure;Samples;Min_cycle;Max_cycle;Signal;HPM_P1;HPM_P2
2021/10/31 00:00:42;;;;;;;4.43;3.55;;;;;;;;;;4854524;29;20030;-81
2021/10/31 00:03:10;;;;;;;5.65;3.65;;;;;;;;;;4837691;29;20034;-82
2021/10/31 00:05:35;;;;;;;6.13;4.30;;;;;;;;;;4834307;29;20053;-82
2021/10/31 00:08:05;;;;;;;7.65;4.85;;;;;;;;;;4850760;29;20120;-82
2021/10/31 00:10:31;;;;;;;5.82;4.38;;;;;;;;;;4835619;29;20041;-83
2021/10/31 00:13:04;;;;;;;4.65;4.10;;;;;;;;;;4853332;29;20030;-82
2021/10/31 00:15:51;;;;;;;4.88;4.10;;;;;;;;;;4853757;29;20073;-81
2021/10/31 00:18:18;;;;;;;5.57;4.22;;;;;;;;;;4856234;29;20033;-83
2021/10/31 00:21:00;;;;;;;5.03;4.03;;;;;;;;;;4841301;29;20040;-82
2021/10/31 00:23:30;;;;;;;6.78;4.05;;;;;;;;;;4853889;29;20041;-82
2021/10/31 00:25:59;;;;;;;5.38;3.50;;;;;;;;;;4837862;29;20037;-81
2021/10/31 00:28:29;;;;;;;4.65;3.47;;;;;;;;;;4836472;29;20030;-78
2021/10/31 00:31:04;;;;;;;4.45;3.05;;;;;;;;;;4861675;29;20042;-80
2021/10/31 00:33:30;;;;;;;5.55;3.42;;;;;;;;;;4846405;29;20038;-81
2021/10/31 00:36:02;;;;;;;4.13;3.15;;;;;;;;;;4840582;29;20034;-82
2021/10/31 00:38:48;;;;;;;3.85;2.90;;;;;;;;;;4843185;29;20547;-82
2021/10/31 00:41:17;;;;;;;3.20;2.90;;;;;;;;;;4853477;29;20046;-82
2021/10/31 00:43:43;;;;;;;4.82;3.08;;;;;;;;;;4850496;29;20042;-81
2021/10/31 00:46:23;;;;;;;2.55;2.35;;;;;;;;;;4845972;29;20041;-81
2021/10/31 00:48:49;;;;;;;3.77;2.67;;;;;;;;;;4851464;29;20045;-82
2021/10/31 00:51:17;;;;;;;2.83;2.47;;;;;;;;;;4834407;29;20087;-82
2021/10/31 00:53:44;;;;;;;2.63;2.10;;;;;;;;;;4837604;29;20040;-81
2021/10/31 00:56:12;;;;;;;2.88;2.55;;;;;;;;;;4852649;29;20050;-82
2021/10/31 00:58:43;;;;;;;4.07;2.40;;;;;;;;;;4852029;29;20033;-82
2021/10/31 01:01:08;;;;;;;2.50;2.30;;;;;;;;;;4836644;29;20038;-81
2021/10/31 01:03:38;;;;;;;2.90;2.30;;;;;;;;;;4854402;29;20033;-83
2021/10/31 01:06:47;;;;;;;2.85;2.47;;;;;;;;;;4850510;29;20057;-83
2021/10/31 01:10:11;;;;;;;4.38;2.63;;;;;;;;;;4856342;29;20042;-84
2021/10/31 01:13:17;;;;;;;2.88;2.67;;;;;;;;;;4853601;29;20049;-82
2021/10/31 01:16:26;;;;;;;3.45;2.97;;;;;;;;;;4876306;29;20045;-82
2021/10/31 01:19:37;;;;;;;3.45;3.15;;;;;;;;;;4875160;29;20564;-83
2021/10/31 01:22:42;;;;;;;3.20;2.83;;;;;;;;;;4833859;29;20041;-80
2021/10/31 01:25:39;;;;;;;3.30;3.00;;;;;;;;;;4849988;29;20094;-83
2021/10/31 01:28:33;;;;;;;3.15;2.85;;;;;;;;;;4831725;29;20030;-82
2021/10/31 01:31:51;;;;;;;3.30;3.00;;;;;;;;;;4849219;29;20093;-81
2021/10/31 01:35:10;;;;;;;4.15;3.33;;;;;;;;;;4846349;29;20073;-80
2021/10/31 01:38:38;;;;;;;3.85;3.45;;;;;;;;;;4857934;29;20030;-83
2021/10/31 01:42:06;;;;;;;4.53;3.40;;;;;;;;;;4855691;29;20041;-81
2021/10/31 01:45:26;;;;;;;4.07;3.67;;;;;;;;;;4842987;29;20072;-82
2021/10/31 01:48:54;;;;;;;4.10;3.70;;;;;;;;;;4823263;29;20046;-83
2021/10/31 01:52:05;;;;;;;3.95;3.28;;;;;;;;;;4841844;29;20022;-83
2021/10/31 01:55:26;;;;;;;4.10;3.55;;;;;;;;;;4823864;29;20058;-83
2021/10/31 02:13:24;;;;;;;3.80;3.38;;;;;;;;;;4774208;30;20101;-85
2021/10/31 02:16:39;;;;;;;4.82;4.13;;;;;;;;;;4754323;30;20033;-83
2021/10/31 02:19:42;;;;;;;6.53;4.07;;;;;;;;;;4706518;30;20057;-85
2021/10/31 02:22:49;;;;;;;6.32;4.25;;;;;;;;;;4722126;30;20044;-84
2021/10/31 02:26:01;;;;;;;5.30;4.50;;;;;;;;;;4757345;30;20040;-84
2021/10/31 02:28:52;;;;;;;5.78;4.32;;;;;;;;;;4727879;30;20045;-83
2021/10/31 02:32:25;;;;;;;5.20;4.70;;;;;;;;;;4749371;30;20048;-82
2021/10/31 02:35:44;;;;;;;6.60;4.72;;;;;;;;;;4753354;30;20071;-84
2021/10/31 02:39:07;;;;;;;5.20;4.70;;;;;;;;;;4773946;30;20118;-82
2021/10/31 02:42:36;;;;;;;6.15;5.00;;;;;;;;;;4735991;30;20037;-85
2021/10/31 02:45:58;;;;;;;6.40;5.35;;;;;;;;;;4741747;30;20040;-83
2021/10/31 02:48:28;;;;;;;5.95;5.35;;;;;;;;;;4759933;30;20055;-83
2021/10/31 02:51:45;;;;;;;7.60;5.57;;;;;;;;;;4785857;30;20178;-83
2021/10/31 02:55:07;;;;;;;6.15;5.25;;;;;;;;;;4806412;30;20055;-83
2021/10/31 02:58:30;;;;;;;6.80;6.15;;;;;;;;;;4807011;30;20051;-83
2021/10/31 03:01:37;;;;;;;6.90;6.20;;;;;;;;;;4791486;30;20044;-82
2021/10/31 03:05:04;;;;;;;7.10;6.40;;;;;;;;;;4797763;30;20044;-83
2021/10/31 03:08:30;;;;;;;7.05;6.38;;;;;;;;;;4797539;30;20060;-84
2021/10/31 03:11:42;;;;;;;7.90;7.15;;;;;;;;;;4809450;30;20026;-84
2021/10/31 03:14:45;;;;;;;7.93;7.13;;;;;;;;;;4788567;30;20089;-83
2021/10/31 03:17:36;;;;;;;9.13;8.23;;;;;;;;;;4789279;30;20039;-83
2021/10/31 03:20:04;;;;;;;9.10;8.20;;;;;;;;;;4781970;30;20047;-81
2021/10/31 03:22:32;;;;;;;8.40;7.60;;;;;;;;;;4779999;30;20040;-82
2021/10/31 03:24:59;;;;;;;7.80;7.00;;;;;;;;;;4779034;30;20035;-82
2021/10/31 03:27:25;;;;;;;8.05;7.25;;;;;;;;;;4772882;30;20506;-81
2021/10/31 03:29:50;;;;;;;9.25;7.65;;;;;;;;;;4777797;30;20048;-81
2021/10/31 03:32:25;;;;;;;8.43;7.40;;;;;;;;;;4827017;29;20069;-81
2021/10/31 03:34:56;;;;;;;7.72;6.88;;;;;;;;;;4871335;29;20021;-81
2021/10/31 03:37:28;;;;;;;7.68;6.88;;;;;;;;;;4870438;29;20037;-82
2021/10/31 03:40:05;;;;;;;;;;;;;;;;;;4871346;29;20056;-82
2021/10/31 03:43:03;;;;;;;8.05;7.25;;;;;;;;;;4872863;29;19923;-83
2021/10/31 03:45:30;;;;;;;8.55;7.60;;;;;;;;;;4836345;29;20045;-83
2021/10/31 03:48:37;;;;;;;8.77;7.97;;;;;;;;;;4864515;29;20068;-83
2021/10/31 03:51:40;;;;;;;9.60;8.60;;;;;;;;;;4868811;29;20048;-84
2021/10/31 03:55:11;;;;;;;9.75;8.30;;;;;;;;;;4879822;29;20045;-83
2021/10/31 03:58:33;;;;;;;9.85;8.68;;;;;;;;;;4858717;29;20041;-83
2021/10/31 04:01:31;;;;;;;9.05;7.60;;;;;;;;;;4858346;29;20054;-82
2021/10/31 04:04:35;;;;;;;10.10;6.93;;;;;;;;;;4878250;29;20100;-84
2021/10/31 04:07:40;;;;;;;10.70;7.05;;;;;;;;;;4862307;29;20026;-83
2021/10/31 04:20:42;;;;;;;8.77;7.30;;;;;;;;;;4883153;29;20090;-83
2021/10/31 04:27:31;;;;;;;9.27;7.13;;;;;;;;;;4827352;29;20081;-83
2021/10/31 04:30:46;;;;;;;8.68;7.53;;;;;;;;;;4817333;29;20039;-84
2021/10/31 04:34:06;;;;;;;9.38;7.28;;;;;;;;;;4791797;30;20564;-83
2021/10/31 04:37:27;;;;;;;10.02;7.40;;;;;;;;;;4773958;29;20051;-82
2021/10/31 04:43:30;;;;;;;8.02;7.22;;;;;;;;;;4727751;30;20082;-84
2021/10/31 04:46:56;;;;;;;8.65;7.82;;;;;;;;;;4703538;30;20032;-82
2021/10/31 04:50:01;;;;;;;9.38;8.18;;;;;;;;;;4712077;30;20604;-84
2021/10/31 04:53:44;;;;;;;9.60;8.60;;;;;;;;;;4701545;30;20050;-84
2021/10/31 04:57:10;;;;;;;9.15;8.25;;;;;;;;;;4687239;30;20038;-84
2021/10/31 05:00:19;;;;;;;9.03;7.90;;;;;;;;;;4667485;30;20126;-84
2021/10/31 05:06:13;;;;;;;9.32;7.55;;;;;;;;;;4629700;31;20058;-81
2021/10/31 05:22:08;;;;;;;11.98;10.20;;;;;;;;;;4734308;30;20080;-82
2021/10/31 05:25:08;;;;;;;11.68;10.05;;;;;;;;;;4733036;30;20507;-83
2021/10/31 05:28:31;;;;;;;11.68;10.52;;;;;;;;;;4714743;30;20086;-83
2021/10/31 05:31:16;;;;;;;11.43;10.05;;;;;;;;;;4697127;30;20058;-82
2021/10/31 05:33:44;;;;;;;12.30;9.90;;;;;;;;;;4678859;30;20061;-82
2021/10/31 05:36:20;;;;;;;11.10;8.70;;;;;;;;;;4680495;30;20049;-81
2021/10/31 05:38:56;;;;;;;10.65;9.55;;;;;;;;;;4694446;30;20056;-82
2021/10/31 05:41:21;;;;;;;11.32;9.20;;;;;;;;;;4708580;30;20054;-81
2021/10/31 05:43:51;;;;;;;10.80;9.10;;;;;;;;;;4708086;30;20057;-82
2021/10/31 05:46:31;;;;;;;11.05;9.95;;;;;;;;;;4709893;30;20045;-82
2021/10/31 05:49:31;;;;;;;12.07;10.25;;;;;;;;;;4700840;30;20054;-82
2021/10/31 05:51:57;;;;;;;12.73;9.57;;;;;;;;;;4672133;30;20050;-81
2021/10/31 05:54:55;;;;;;;10.95;9.43;;;;;;;;;;4657432;30;20051;-83
2021/10/31 05:57:23;;;;;;;12.00;9.48;;;;;;;;;;4640887;30;20048;-82
2021/10/31 05:59:50;;;;;;;10.57;9.25;;;;;;;;;;4666269;30;20126;-81
2021/10/31 06:02:16;;;;;;;12.23;10.70;;;;;;;;;;4729752;30;20139;-80
2021/10/31 06:04:44;;;;;;;10.88;9.55;;;;;;;;;;4738290;30;20779;-81
2021/10/31 06:07:10;;;;;;;10.88;9.75;;;;;;;;;;4795250;30;20055;-81
2021/10/31 06:09:40;;;;;;;10.70;9.57;;;;;;;;;;4778358;29;20135;-81
2021/10/31 06:12:07;;;;;;;13.07;9.93;;;;;;;;;;4794250;30;20043;-82
2021/10/31 06:14:35;;;;;;;11.70;10.30;;;;;;;;;;4782422;30;20038;-82
2021/10/31 06:17:05;;;;;;;9.77;8.77;;;;;;;;;;4799131;30;20687;-82
2021/10/31 06:19:39;;;;;;;10.52;9.43;;;;;;;;;;4799860;30;20051;-81
2021/10/31 06:22:14;;;;;;;10.02;9.02;;;;;;;;;;4817889;29;20130;-82
2021/10/31 06:25:25;;;;;;;12.35;9.98;;;;;;;;;;4856342;29;20063;-82
2021/10/31 06:28:15;;;;;;;10.95;9.77;;;;;;;;;;4858295;29;20580;-83
2021/10/31 06:31:08;;;;;;;10.63;9.57;;;;;;;;;;4870993;29;20116;-82
2021/10/31 06:33:53;;;;;;;9.95;8.95;;;;;;;;;;4856540;29;20080;-82
2021/10/31 06:36:26;;;;;;;10.18;9.07;;;;;;;;;;4859014;29;20034;-83
2021/10/31 06:39:44;;;;;;;10.70;9.60;;;;;;;;;;4863069;29;20033;-82
2021/10/31 06:45:38;;;;;;;11.07;9.32;;;;;;;;;;4827712;29;20080;-82
2021/10/31 06:48:17;;;;;;;10.27;9.18;;;;;;;;;;4837032;29;20106;-82
2021/10/31 06:51:22;;;;;;;11.38;9.50;;;;;;;;;;4835643;29;20051;-82
2021/10/31 06:54:28;;;;;;;9.93;8.93;;;;;;;;;;4839883;29;20034;-82
2021/10/31 06:57:08;;;;;;;10.25;9.18;;;;;;;;;;4841701;29;20061;-83
2021/10/31 06:59:45;;;;;;;10.75;9.45;;;;;;;;;;4837405;29;20034;-82
2021/10/31 07:02:12;;;;;;;11.63;10.13;;;;;;;;;;4837454;29;20053;-82
2021/10/31 07:04:45;;;;;;;11.13;9.55;;;;;;;;;;4819411;29;20066;-82
2021/10/31 07:07:31;;;;;;;11.18;10.00;;;;;;;;;;4836836;29;20555;-82
2021/10/31 07:10:06;;;;;;;11.65;10.45;;;;;;;;;;4836790;29;20050;-82
2021/10/31 07:12:31;;;;;;;12.65;11.45;;;;;;;;;;4820967;29;20514;-82
2021/10/31 07:15:09;;;;;;;13.43;12.02;;;;;;;;;;4808935;29;20070;-82
2021/10/31 07:17:41;;;;;;;13.43;11.93;;;;;;;;;;4855852;29;20042;-82
2021/10/31 07:20:29;;;;;;;13.00;11.70;;;;;;;;;;4842071;29;20524;-82
2021/10/31 07:23:36;;;;;;;14.50;12.93;;;;;;;;;;4848117;29;20084;-82
2021/10/31 07:26:42;;;;;;;13.38;11.93;;;;;;;;;;4859156;29;20203;-82
2021/10/31 07:29:18;;;;;;;14.48;12.52;;;;;;;;;;4858519;29;20026;-82
2021/10/31 07:35:30;;;;;;;12.90;10.63;;;;;;;;;;4840208;29;20098;-82
2021/10/31 07:38:20;;;;;;;13.55;12.10;;;;;;;;;;4849730;29;20046;-82
2021/10/31 07:41:36;;;;;;;13.60;11.90;;;;;;;;;;4855242;29;20045;-82
2021/10/31 07:44:25;;;;;;;13.75;11.77;;;;;;;;;;4850632;29;20046;-82
2021/10/31 07:46:58;;;;;;;14.98;11.80;;;;;;;;;;4855731;29;20034;-82
2021/10/31 07:50:17;;;;;;;14.65;11.00;;;;;;;;;;4859733;29;20069;-82
2021/10/31 07:53:03;;;;;;;11.50;10.20;;;;;;;;;;4856610;29;20071;-82
2021/10/31 07:55:33;;;;;;;11.93;10.60;;;;;;;;;;4841534;29;20045;-81
2021/10/31 07:58:01;;;;;;;12.95;10.65;;;;;;;;;;4846706;29;20030;-80
2021/10/31 08:00:27;;;;;;;10.95;9.85;;;;;;;;;;4849238;29;20073;-79
2021/10/31 08:02:56;;;;;;;11.00;9.90;;;;;;;;;;4846871;29;20103;-81
2021/10/31 08:05:23;;;;;;;10.10;9.10;;;;;;;;;;4843832;29;20046;-80
2021/10/31 08:07:48;;;;;;;10.48;9.38;;;;;;;;;;4842919;29;20037;-79
2021/10/31 08:10:54;;;;;;;11.75;9.77;;;;;;;;;;4856389;29;20052;-80
2021/10/31 08:13:22;;;;;;;10.35;9.35;;;;;;;;;;4845068;29;20396;-81
2021/10/31 08:15:47;;;;;;;9.75;8.75;;;;;;;;;;4862827;29;20448;-80
2021/10/31 08:18:13;;;;;;;9.75;8.52;;;;;;;;;;4863832;29;20044;-78
2021/10/31 08:20:38;;;;;;;9.80;8.18;;;;;;;;;;4866931;29;20044;-79
2021/10/31 08:23:04;;;;;;;8.98;7.55;;;;;;;;;;4865521;29;20036;-79
2021/10/31 08:25:30;;;;;;;9.45;8.05;;;;;;;;;;4866314;29;20411;-80
2021/10/31 08:27:56;;;;;;;7.95;7.15;;;;;;;;;;4862970;29;20029;-81
2021/10/31 08:30:29;;;;;;;6.93;6.03;;;;;;;;;;4862669;29;20044;-80
2021/10/31 08:32:55;;;;;;;6.18;5.50;;;;;;;;;;4861228;29;20045;-79
2021/10/31 08:35:21;;;;;;;7.63;5.53;;;;;;;;;;4862570;29;20025;-79
2021/10/31 08:37:46;;;;;;;7.30;5.32;;;;;;;;;;4861093;29;20422;-80
2021/10/31 08:40:12;;;;;;;6.05;5.18;;;;;;;;;;4860587;29;20045;-79
2021/10/31 08:42:38;;;;;;;5.45;4.95;;;;;;;;;;4863235;29;20025;-80
2021/10/31 08:45:05;;;;;;;5.22;4.57;;;;;;;;;;4862458;29;20089;-80
2021/10/31 08:47:30;;;;;;;6.18;5.40;;;;;;;;;;4862603;29;20036;-79
2021/10/31 08:49:56;;;;;;;5.63;4.97;;;;;;;;;;4862036;29;20042;-81
2021/10/31 08:52:21;;;;;;;5.45;4.95;;;;;;;;;;4861739;29;20029;-79
2021/10/31 08:54:47;;;;;;;6.43;5.22;;;;;;;;;;4861599;29;20081;-79
2021/10/31 08:57:12;;;;;;;6.18;5.55;;;;;;;;;;4861658;29;20057;-81
2021/10/31 08:59:37;;;;;;;6.25;5.65;;;;;;;;;;4860292;29;20033;-80
2021/10/31 09:02:04;;;;;;;5.72;5.05;;;;;;;;;;4861755;29;20033;-79
2021/10/31 09:04:30;;;;;;;5.88;4.90;;;;;;;;;;4860551;29;20029;-81
2021/10/31 09:06:55;;;;;;;5.63;5.00;;;;;;;;;;4861436;29;20038;-80
2021/10/31 09:09:23;;;;;;;5.20;4.70;;;;;;;;;;4864039;29;20053;-79
2021/10/31 09:11:49;;;;;;;7.25;5.22;;;;;;;;;;4863113;29;20034;-79
2021/10/31 09:14:15;;;;;;;6.57;4.55;;;;;;;;;;4845740;29;20064;-79
2021/10/31 09:16:41;;;;;;;4.57;4.15;;;;;;;;;;4863774;29;20116;-81
2021/10/31 09:19:06;;;;;;;4.53;3.72;;;;;;;;;;4864403;29;20068;-80
2021/10/31 09:21:32;;;;;;;4.47;3.75;;;;;;;;;;4861506;29;20029;-80
2021/10/31 09:23:59;;;;;;;12.82;3.92;;;;;;;;;;4863293;29;20499;-80
2021/10/31 09:26:24;;;;;;;4.05;3.65;;;;;;;;;;4847977;29;20082;-80
2021/10/31 09:28:49;;;;;;;4.88;3.40;;;;;;;;;;4863209;29;20093;-80
2021/10/31 09:31:16;;;;;;;4.15;2.70;;;;;;;;;;4865848;29;20045;-83
2021/10/31 09:33:42;;;;;;;2.88;2.15;;;;;;;;;;4849207;29;20128;-81
2021/10/31 09:36:08;;;;;;;2.22;1.65;;;;;;;;;;4864008;29;20076;-80
2021/10/31 09:38:34;;;;;;;1.17;0.98;;;;;;;;;;4848257;29;20053;-79
2021/10/31 09:41:01;;;;;;;2.22;0.80;;;;;;;;;;4864490;29;20045;-81
2021/10/31 09:43:31;;;;;;;0.70;0.70;;;;;;;;;;4865827;29;20033;-81
2021/10/31 09:45:59;;;;;;;0.98;0.88;;;;;;;;;;4849329;29;20025;-82
2021/10/31 09:48:30;;;;;;;2.35;1.00;;;;;;;;;;4863119;29;20033;-83
2021/10/31 09:50:57;;;;;;;2.58;0.70;;;;;;;;;;4865375;29;20065;-83
2021/10/31 09:53:25;;;;;;;1.48;1.00;;;;;;;;;;4864651;29;20423;-82
2021/10/31 09:55:51;;;;;;;0.80;0.70;;;;;;;;;;4849111;29;20033;-81
2021/10/31 09:58:23;;;;;;;0.80;0.80;;;;;;;;;;4848434;29;20070;-81
2021/10/31 10:00:52;;;;;;;1.65;0.98;;;;;;;;;;4864149;29;20048;-80
2021/10/31 10:03:38;;;;;;;2.13;0.98;;;;;;;;;;4863537;29;20045;-81
2021/10/31 10:06:15;;;;;;;0.80;0.80;;;;;;;;;;4871575;29;20473;-81
2021/10/31 10:09:00;;;;;;;0.80;0.80;;;;;;;;;;4864013;29;20030;-81
2021/10/31 10:11:26;;;;;;;0.80;0.80;;;;;;;;;;4863108;29;20082;-81
2021/10/31 10:13:51;;;;;;;1.45;0.80;;;;;;;;;;4850586;29;20088;-81
2021/10/31 10:16:29;;;;;;;1.08;0.80;;;;;;;;;;4846553;29;20026;-80
2021/10/31 10:18:58;;;;;;;4.18;1.08;;;;;;;;;;4844091;29;20025;-81
2021/10/31 10:21:31;;;;;;;0.70;0.70;;;;;;;;;;4863789;29;20034;-81
2021/10/31 10:24:00;;;;;;;2.38;0.85;;;;;;;;;;4862341;29;20513;-81
2021/10/31 10:26:32;;;;;;;1.80;0.80;;;;;;;;;;4860195;29;20053;-80
2021/10/31 10:29:13;;;;;;;0.73;0.73;;;;;;;;;;4863324;29;20041;-82
2021/10/31 10:31:51;;;;;;;0.60;0.60;;;;;;;;;;4868320;29;20045;-82
2021/10/31 10:34:45;;;;;;;1.15;0.70;;;;;;;;;;4843937;29;20451;-79
2021/10/31 11:08:25;;;;;;;1.85;1.05;;;;;;;;;;5229872;23;20065;-83
2021/10/31 11:11:17;;;;;;;0.80;0.77;;;;;;;;;;4884482;29;20057;-82
2021/10/31 11:13:46;;;;;;;0.77;0.77;;;;;;;;;;4886134;29;20025;-82
2021/10/31 11:16:23;;;;;;;0.70;0.68;;;;;;;;;;4906620;29;20048;-82
2021/10/31 11:18:51;;;;;;;1.10;0.90;;;;;;;;;;4869075;29;20037;-82
2021/10/31 11:21:18;;;;;;;11.35;1.02;;;;;;;;;;4880686;29;20036;-82
2021/10/31 11:23:49;;;;;;;50.40;2.88;;;;;;;;;;4886489;29;20029;-81
2021/10/31 11:26:44;;;;;;;3.47;1.10;;;;;;;;;;4872188;29;20030;-81
2021/10/31 11:29:09;;;;;;;2.00;1.10;;;;;;;;;;4871825;29;20120;-80
2021/10/31 11:31:35;;;;;;;4.07;1.23;;;;;;;;;;4884223;29;20703;-81
2021/10/31 11:34:02;;;;;;;2.40;0.98;;;;;;;;;;4890148;29;20032;-82
2021/10/31 11:36:27;;;;;;;1.42;1.00;;;;;;;;;;4874001;29;20037;-81
2021/10/31 11:38:55;;;;;;;1.27;0.75;;;;;;;;;;4897282;29;20024;-81
2021/10/31 11:41:50;;;;;;;1.98;0.73;;;;;;;;;;4879466;29;20037;-82
2021/10/31 11:44:19;;;;;;;1.73;0.90;;;;;;;;;;4882454;29;20490;-81
2021/10/31 11:46:46;;;;;;;1.05;0.90;;;;;;;;;;4878423;29;20041;-80
2021/10/31 11:49:13;;;;;;;2.22;0.98;;;;;;;;;;4865319;29;20081;-81
2021/10/31 11:51:48;;;;;;;1.23;0.90;;;;;;;;;;4883095;29;20045;-82
2021/10/31 11:54:16;;;;;;;1.63;0.73;;;;;;;;;;4876879;29;20048;-81
2021/10/31 11:56:55;;;;;;;2.70;1.00;;;;;;;;;;4879065;29;20041;-82
2021/10/31 11:59:23;;;;;;;1.30;1.00;;;;;;;;;;4883231;29;20192;-82
2021/10/31 12:01:50;;;;;;;0.95;0.75;;;;;;;;;;4882490;29;20084;-82
2021/10/31 12:05:14;;;;;;;2.72;0.70;;;;;;;;;;4878154;29;20131;-81
2021/10/31 12:07:45;;;;;;;1.15;0.70;;;;;;;;;;4836576;29;20045;-82
2021/10/31 12:10:34;;;;;;;0.88;0.68;;;;;;;;;;4884159;29;20040;-80
2021/10/31 12:13:16;;;;;;;0.93;0.80;;;;;;;;;;4893589;29;20093;-82
2021/10/31 12:15:57;;;;;;;0.70;0.70;;;;;;;;;;4878260;29;20478;-82
2021/10/31 12:18:40;;;;;;;1.65;0.57;;;;;;;;;;4879121;29;20044;-81
2021/10/31 12:21:20;;;;;;;0.60;0.60;;;;;;;;;;4873426;29;20097;-81
2021/10/31 12:24:13;;;;;;;1.85;0.70;;;;;;;;;;4871979;29;20036;-81
2021/10/31 12:26:43;;;;;;;1.15;0.65;;;;;;;;;;4878241;29;20427;-81
2021/10/31 12:29:14;;;;;;;2.10;0.57;;;;;;;;;;4855801;29;20032;-81
2021/10/31 12:31:55;;;;;;;1.00;0.60;;;;;;;;;;4864611;29;20033;-78
2021/10/31 12:34:24;;;;;;;1.17;0.60;;;;;;;;;;4877375;29;20044;-79
2021/10/31 12:36:52;;;;;;;2.05;0.60;;;;;;;;;;4863388;29;20040;-79
2021/10/31 12:39:28;;;;;;;1.45;0.57;;;;;;;;;;4884134;29;20124;-79
2021/10/31 12:42:20;;;;;;;2.40;0.70;;;;;;;;;;4883385;29;20128;-79
2021/10/31 12:44:58;;;;;;;1.48;0.60;;;;;;;;;;4880213;29;20513;-80
2021/10/31 12:47:44;;;;;;;1.85;0.50;;;;;;;;;;4882925;29;20136;-78
2021/10/31 12:50:20;;;;;;;0.77;0.60;;;;;;;;;;4881474;29;20044;-79
2021/10/31 12:52:55;;;;;;;1.20;0.60;;;;;;;;;;4884578;29;20108;-79
2021/10/31 12:55:22;;;;;;;1.02;0.60;;;;;;;;;;4881573;29;20044;-79
2021/10/31 12:58:08;;;;;;;0.52;0.50;;;;;;;;;;4884008;29;20036;-79
2021/10/31 13:00:39;;;;;;;2.72;0.50;;;;;;;;;;4884170;29;20043;-79
2021/10/31 13:03:06;;;;;;;1.50;0.60;;;;;;;;;;4880557;29;20119;-78
2021/10/31 13:05:38;;;;;;;2.53;0.85;;;;;;;;;;4883068;29;20028;-79
2021/10/31 13:08:04;;;;;;;1.27;0.47;;;;;;;;;;4883071;29;20104;-79
2021/10/31 13:10:34;;;;;;;1.30;0.32;;;;;;;;;;4878817;29;20380;-79
2021/10/31 13:13:03;;;;;;;0.50;0.50;;;;;;;;;;4863783;29;20436;-78
2021/10/31 13:15:30;;;;;;;0.45;0.45;;;;;;;;;;4878070;29;20033;-78
2021/10/31 13:17:56;;;;;;;1.10;0.40;;;;;;;;;;4876753;29;20029;-78
2021/10/31 13:20:35;;;;;;;0.77;0.40;;;;;;;;;;4877359;29;20063;-84
2021/10/31 13:23:07;;;;;;;2.47;0.63;;;;;;;;;;4868215;29;20495;-80
2021/10/31 13:25:58;;;;;;;1.67;0.60;;;;;;;;;;4877272;29;20034;-81
2021/10/31 13:28:31;;;;;;;0.68;0.50;;;;;;;;;;4864270;29;20021;-79
2021/10/31 13:31:01;;;;;;;0.50;0.50;;;;;;;;;;4874913;29;20065;-78
2021/10/31 13:33:52;;;;;;;1.67;0.52;;;;;;;;;;4877568;29;20025;-79
2021/10/31 13:36:37;;;;;;;2.38;0.60;;;;;;;;;;4862290;29;20048;-79
2021/10/31 13:39:10;;;;;;;2.33;0.70;;;;;;;;;;4875403;29;20053;-79
2021/10/31 13:41:36;;;;;;;1.55;0.70;;;;;;;;;;4875138;29;20044;-79
2021/10/31 13:44:16;;;;;;;1.03;0.80;;;;;;;;;;4876696;29;20089;-80
2021/10/31 13:47:42;;;;;;;0.80;0.70;;;;;;;;;;4876975;29;20032;-79
2021/10/31 13:50:02;;;;;;;4.72;0.70;;;;;;;;;;4864959;29;20040;-78
2021/10/31 13:52:28;;;;;;;1.60;0.82;;;;;;;;;;4870364;29;20025;-80
2021/10/31 13:54:55;;;;;;;1.58;0.60;;;;;;;;;;4877870;29;20021;-78
2021/10/31 13:57:23;;;;;;;3.25;0.77;;;;;;;;;;4878352;29;20029;-78
2021/10/31 13:59:54;;;;;;;1.92;0.85;;;;;;;;;;4875292;29;20041;-77
2021/10/31 14:02:21;;;;;;;1.27;0.60;;;;;;;;;;4881844;29;20387;-78
2021/10/31 14:05:03;;;;;;;1.13;0.70;;;;;;;;;;4874647;29;20044;-79
2021/10/31 14:07:33;;;;;;;0.98;0.73;;;;;;;;;;4872566;29;20061;-79
2021/10/31 14:09:58;;;;;;;;;;;;;;;;;;4878371;29;20029;-79
2021/10/31 14:12:27;;;;;;;0.85;0.70;;;;;;;;;;4875435;29;19984;-78
2021/10/31 14:15:08;;;;;;;1.58;0.63;;;;;;;;;;4866445;29;20406;-79
2021/10/31 14:17:36;;;;;;;0.98;0.50;;;;;;;;;;4876407;29;20029;-79
2021/10/31 14:20:03;;;;;;;0.88;0.60;;;;;;;;;;4875599;29;20033;-80
2021/10/31 14:22:47;;;;;;;2.17;0.60;;;;;;;;;;4876009;29;20041;-79
2021/10/31 14:25:15;;;;;;;1.25;0.68;;;;;;;;;;4875945;29;20494;-80
2021/10/31 14:27:43;;;;;;;0.85;0.70;;;;;;;;;;4879453;29;20120;-79
2021/10/31 14:30:13;;;;;;;0.68;0.60;;;;;;;;;;4875471;29;20101;-79
2021/10/31 14:32:45;;;;;;;1.10;0.90;;;;;;;;;;4876154;29;20081;-79
2021/10/31 14:35:10;;;;;;;0.82;0.60;;;;;;;;;;4875739;29;20037;-79
2021/10/31 14:37:35;;;;;;;1.83;0.77;;;;;;;;;;4879344;29;20037;-79
2021/10/31 14:40:01;;;;;;;3.22;0.80;;;;;;;;;;4871106;29;20037;-79
2021/10/31 14:42:30;;;;;;;0.70;0.70;;;;;;;;;;4881818;29;20036;-80
2021/10/31 14:44:57;;;;;;;1.50;0.75;;;;;;;;;;4879727;29;20134;-80
2021/10/31 14:47:22;;;;;;;3.35;0.80;;;;;;;;;;4877093;29;20414;-80
2021/10/31 14:49:48;;;;;;;2.30;0.90;;;;;;;;;;4881256;29;20036;-80
2021/10/31 14:52:13;;;;;;;2.67;1.10;;;;;;;;;;4880572;29;20475;-80
2021/10/31 14:54:45;;;;;;;2.65;1.05;;;;;;;;;;4877849;29;20063;-80
2021/10/31 14:59:47;;;;;;;1.85;1.13;;;;;;;;;;4880069;29;20040;-79
2021/10/31 15:02:22;;;;;;;2.25;0.85;;;;;;;;;;4881783;29;20040;-80
2021/10/31 15:04:47;;;;;;;2.20;1.20;;;;;;;;;;4878731;29;20033;-80
2021/10/31 15:07:13;;;;;;;1.02;0.80;;;;;;;;;;4882002;29;20080;-80
2021/10/31 15:09:39;;;;;;;2.40;1.02;;;;;;;;;;4887018;29;20072;-81
2021/10/31 15:12:05;;;;;;;3.95;0.95;;;;;;;;;;4884308;29;20089;-79
2021/10/31 15:14:30;;;;;;;4.90;0.90;;;;;;;;;;4888937;29;20120;-80
2021/10/31 15:16:58;;;;;;;1.67;1.10;;;;;;;;;;4898654;29;20033;-81
2021/10/31 15:20:22;;;;;;;1.85;1.10;;;;;;;;;;4899776;29;20292;-82
2021/10/31 15:23:27;;;;;;;2.95;0.88;;;;;;;;;;4899559;29;20056;-82
2021/10/31 15:29:18;;;;;;;4.15;1.25;;;;;;;;;;4814044;29;20042;-80
2021/10/31 15:32:07;;;;;;;3.78;1.10;;;;;;;;;;4821192;29;20053;-81
2021/10/31 15:34:34;;;;;;;1.15;0.95;;;;;;;;;;4819082;29;20049;-81
2021/10/31 15:37:36;;;;;;;2.55;1.20;;;;;;;;;;4805828;29;20039;-81
2021/10/31 16:09:02;;;;;;;2.35;1.35;;;;;;;;;;5716896;23;20037;-86
2021/10/31 16:21:46;;;;;;;1.38;1.17;;;;;;;;;;4887052;29;20098;-86
2021/10/31 16:24:40;;;;;;;2.67;1.10;;;;;;;;;;4887138;29;20058;-86
2021/10/31 16:31:54;;;;;;;6.93;1.60;;;;;;;;;;4813857;29;20054;-85
2021/10/31 16:38:47;;;;;;;3.00;1.20;;;;;;;;;;4847465;29;20077;-84
2021/10/31 16:42:07;;;;;;;1.33;1.00;;;;;;;;;;4848260;29;20050;-83
2021/10/31 16:48:49;;;;;;;2.13;1.35;;;;;;;;;;4777602;29;20112;-84
2021/10/31 16:52:02;;;;;;;2.60;1.05;;;;;;;;;;4776199;30;20036;-84
2021/10/31 16:57:19;;;;;;;1.83;1.10;;;;;;;;;;5048508;23;20040;-84
2021/10/31 17:25:12;;;;;;;2.45;1.17;;;;;;;;;;5005006;23;20065;-81
2021/10/31 17:27:39;;;;;;;2.22;1.50;;;;;;;;;;4880454;29;20032;-81
2021/10/31 17:30:06;;;;;;;2.75;1.42;;;;;;;;;;4877891;29;20037;-82
2021/10/31 17:32:32;;;;;;;2.30;1.50;;;;;;;;;;4879184;29;20062;-81
2021/10/31 17:34:57;;;;;;;1.83;1.35;;;;;;;;;;4878871;29;20036;-81
2021/10/31 17:37:23;;;;;;;3.92;1.23;;;;;;;;;;4877159;29;20034;-81
2021/10/31 17:39:48;;;;;;;2.00;1.40;;;;;;;;;;4880015;29;20041;-81
2021/10/31 17:42:14;;;;;;;2.65;1.40;;;;;;;;;;4877036;29;20044;-80
2021/10/31 17:44:41;;;;;;;1.38;1.27;;;;;;;;;;4871435;29;20037;-81
2021/10/31 17:58:15;;;;;;;2.60;1.73;;;;;;;;;;5341780;23;20060;-83
2021/10/31 18:00:44;;;;;;;2.17;1.48;;;;;;;;;;4896161;29;20065;-83
2021/10/31 18:04:02;;;;;;;1.55;1.42;;;;;;;;;;4917095;29;20024;-83
2021/10/31 18:07:19;;;;;;;3.20;1.77;;;;;;;;;;4831741;29;20043;-83
2021/10/31 18:09:59;;;;;;;1.60;1.50;;;;;;;;;;4804184;29;20027;-82
2021/10/31 18:13:17;;;;;;;1.80;1.48;;;;;;;;;;4800613;29;20047;-82
2021/10/31 18:16:20;;;;;;;1.70;1.60;;;;;;;;;;4818430;29;20059;-82
2021/10/31 18:19:37;;;;;;;4.90;1.70;;;;;;;;;;4801802;29;20047;-82
2021/10/31 18:22:54;;;;;;;2.40;1.80;;;;;;;;;;4799110;29;20030;-83
2021/10/31 18:33:08;;;;;;;2.08;1.83;;;;;;;;;;4773766;30;20115;-83
2021/10/31 18:36:19;;;;;;;2.97;1.95;;;;;;;;;;4789446;29;20115;-83
2021/10/31 18:39:23;;;;;;;;;;;;;;;;;;4774861;30;20054;-83
2021/10/31 18:42:37;;;;;;;1.77;1.67;;;;;;;;;;4775255;30;19906;-83
2021/10/31 18:45:43;;;;;;;1.70;1.60;;;;;;;;;;4726878;30;20046;-84
2021/10/31 18:59:20;;;;;;;2.10;1.80;;;;;;;;;;4650973;30;20645;-84
2021/10/31 19:02:58;;;;;;;2.00;1.80;;;;;;;;;;4634101;30;20060;-82
2021/10/31 19:05:49;;;;;;;3.05;1.83;;;;;;;;;;4634658;31;20045;-83
2021/10/31 19:09:13;;;;;;;2.78;1.98;;;;;;;;;;4620952;31;20036;-84
2021/10/31 19:12:51;;;;;;;2.85;2.00;;;;;;;;;;4619109;30;20048;-82
2021/10/31 19:23:31;;;;;;;3.17;1.80;;;;;;;;;;4615538;30;20422;-82
2021/10/31 19:26:58;;;;;;;3.15;2.10;;;;;;;;;;4637200;30;20062;-83
2021/10/31 19:30:24;;;;;;;2.35;2.15;;;;;;;;;;4614966;30;20056;-81
2021/10/31 19:33:42;;;;;;;2.70;1.95;;;;;;;;;;4646058;31;20032;-83
2021/10/31 19:40:04;;;;;;;3.70;2.22;;;;;;;;;;4693085;30;20099;-83
2021/10/31 19:43:10;;;;;;;1.88;1.70;;;;;;;;;;4687229;30;20066;-86
2021/10/31 19:46:35;;;;;;;2.35;1.92;;;;;;;;;;4704507;30;20035;-81